หน้าหลัก
METAR-TAF:

METAR-TAF

ท่าอากาศยาน :

โจฮันเนสเบิร์ก, แอฟริกาใต้

ละติจูด: 26-09S, ลองจิจูด: 28-00E, ความสูง: 1626 ม.

การสังเกตสภาพอากาศปัจจุบัน

รายงานได้ทำขึ้นเมื่อ 18 นาทีที่แล้ว ณ เวลา 04:00 UTC
ลมสงบ
อุณหภูมิ 14°C
ความชื้น 82%
ความกดอากาศ 1023 hPa

METAR: FAJB 020400Z AUTO 00000KT //// // ////// 14/11 Q1023

เวลา: 06:18 (04:18 UTC)


TAF: หายไป

สังเกตการณ์สภาพอากาศและพยากรณ์อากาศของสนามบินมากกว่า 4000 แห่ง (รายงาน METAR และ TAF).

สถานีที่ดูได้จะแสดงไว้ด้วยจุดสีเหลืองและสีแดงบนแผนที่.

เลื่อนเมาส์ไปเหนือจุดเพื่อดูชื่อสถานี.

แล้วคลิกเพื่อดูสังเกตการณ์และการพยากรณ์สภาพอากาศ.

ในการเปลี่ยนแผนที่: คลิกที่ปุ่มสีเขียวที่มีกากบาทสีดำเพื่อซูมเข้า; ที่ปุ่มสีเขียวที่มีขีดเพื่อซูมออก; หรือที่ลูกศรสีเขียวเพื่อไปยังแผนที่ที่อยู่ติดกัน.


METAR-TAF: